Time;durP1;ratioP1;P1;durP2;ratioP2;P2;SDS_P1;SDS_P2;PMS_P1;PMS_P2;Temp;Humidity;BMP_temperature;BMP_pressure;BME280_temperature;BME280_humidity;BME280_pressure;Samples;Min_cycle;Max_cycle;Signal;HPM_P1;HPM_P2
2023/04/23 00:01:12;;;;;;;77.67;32.07;;;;;;;-145.18;100.00;46656.50;4996607;28;20367;-73
2023/04/23 00:03:41;;;;;;;66.57;31.50;;;;;;;-145.18;100.00;46656.50;4992938;28;20311;-73
2023/04/23 00:06:09;;;;;;;69.73;32.10;;;;;;;-145.18;100.00;46656.50;4992871;28;20283;-72
2023/04/23 00:08:34;;;;;;;62.70;29.70;;;;;;;-145.18;100.00;46654.53;4992919;28;20896;-73
2023/04/23 00:11:01;;;;;;;65.03;29.23;;;;;;;-145.18;100.00;46656.50;4992743;28;20447;-73
2023/04/23 00:13:26;;;;;;;62.00;30.40;;;;;;;-145.18;100.00;46660.41;4992942;28;20511;-74
2023/04/23 00:15:52;;;;;;;63.20;30.07;;;;;;;-145.18;100.00;46660.41;4992775;28;20296;-73
2023/04/23 00:18:18;;;;;;;61.13;29.33;;;;;;;-145.18;100.00;46660.41;4992520;28;20065;-73
2023/04/23 00:20:44;;;;;;;62.80;28.10;;;;;;;-145.18;100.00;46658.44;5006402;28;20038;-73
2023/04/23 00:23:09;;;;;;;61.63;30.37;;;;;;;-145.18;100.00;46662.34;5011725;28;20286;-73
2023/04/23 00:25:35;;;;;;;67.83;30.67;;;;;;;-145.18;100.00;46658.44;5012266;28;20112;-73
2023/04/23 00:28:00;;;;;;;62.57;29.20;;;;;;;-145.18;100.00;46654.53;4996542;28;20070;-73
2023/04/23 00:30:25;;;;;;;63.23;29.90;;;;;;;-145.18;100.00;46660.41;4992613;28;20483;-73
2023/04/23 00:32:51;;;;;;;57.10;28.83;;;;;;;-145.18;100.00;46660.41;4992494;28;20145;-73
2023/04/23 00:35:17;;;;;;;66.63;28.67;;;;;;;-145.18;100.00;46664.31;4992173;28;20045;-73
2023/04/23 00:37:42;;;;;;;62.20;28.20;;;;;;;-145.18;100.00;46660.41;4991602;28;20089;-74
2023/04/23 00:40:08;;;;;;;55.37;27.67;;;;;;;-145.18;100.00;46664.31;4996223;28;20288;-73
2023/04/23 00:42:35;;;;;;;56.97;26.77;;;;;;;-145.18;100.00;46660.41;5002530;28;20030;-73
2023/04/23 00:45:01;;;;;;;60.30;28.40;;;;;;;-145.18;100.00;46660.41;4992090;28;20120;-73
2023/04/23 00:47:28;;;;;;;61.53;28.37;;;;;;;-145.18;100.00;46656.50;4992065;28;20272;-73
2023/04/23 00:49:54;;;;;;;55.03;26.77;;;;;;;-145.18;100.00;46664.31;5002589;28;20493;-73
2023/04/23 00:52:20;;;;;;;61.87;28.43;;;;;;;-145.18;100.00;46660.41;5008665;28;20263;-73
2023/04/23 00:54:45;;;;;;;60.80;29.37;;;;;;;-145.18;100.00;46664.31;4992090;28;20319;-72
2023/04/23 00:57:11;;;;;;;65.20;30.10;;;;;;;-145.18;100.00;46660.41;4991755;28;20039;-73
2023/04/23 00:59:37;;;;;;;61.20;29.03;;;;;;;-145.18;100.00;46666.25;4991676;28;20061;-73
2023/04/23 01:02:02;;;;;;;70.47;30.90;;;;;;;-145.18;100.00;46662.34;4991580;28;20031;-73
2023/04/23 01:04:30;;;;;;;66.30;29.60;;;;;;;-145.18;100.00;46660.41;4991918;28;20050;-73
2023/04/23 01:06:57;;;;;;;70.93;31.30;;;;;;;-145.18;100.00;46662.34;4991530;28;20120;-73
2023/04/23 01:09:26;;;;;;;64.20;29.63;;;;;;;-145.18;100.00;46656.50;4991987;28;20665;-73
2023/04/23 01:11:52;;;;;;;66.50;30.13;;;;;;;-145.18;100.00;46664.31;4991517;28;20931;-73
2023/04/23 01:14:17;;;;;;;61.87;29.37;;;;;;;-145.18;100.00;46660.41;4991749;28;20280;-73
2023/04/23 01:16:43;;;;;;;65.53;27.77;;;;;;;-145.18;100.00;46662.34;4991557;28;20046;-73
2023/04/23 01:19:09;;;;;;;62.87;29.23;;;;;;;-145.18;100.00;46664.31;4991735;28;20570;-73
2023/04/23 01:21:36;;;;;;;63.47;28.47;;;;;;;-145.18;100.00;46664.31;4991336;28;20030;-73
2023/04/23 01:24:03;;;;;;;59.40;26.70;;;;;;;-145.18;100.00;46664.31;4992215;28;20760;-73
2023/04/23 01:26:29;;;;;;;63.87;28.33;;;;;;;-145.18;100.00;46668.22;4991376;28;20264;-73
2023/04/23 01:28:55;;;;;;;65.33;29.07;;;;;;;-145.18;100.00;46660.41;4991495;28;21079;-73
2023/04/23 01:31:21;;;;;;;59.80;27.27;;;;;;;-145.18;100.00;46668.22;4991177;28;20117;-73
2023/04/23 01:33:48;;;;;;;56.70;28.07;;;;;;;-145.18;100.00;46664.31;5007423;28;20038;-73
2023/04/23 01:36:13;;;;;;;57.17;26.83;;;;;;;-145.18;100.00;46658.44;5010779;28;20298;-73
2023/04/23 01:38:39;;;;;;;56.23;27.67;;;;;;;-145.18;100.00;46660.41;5010793;28;20290;-73
2023/04/23 01:41:05;;;;;;;58.07;27.83;;;;;;;-145.18;100.00;46664.31;5010942;28;20034;-73
2023/04/23 01:43:30;;;;;;;64.10;27.30;;;;;;;-145.18;100.00;46662.34;5010461;28;20318;-73
2023/04/23 01:45:59;;;;;;;58.87;28.23;;;;;;;-145.18;100.00;46662.34;5010549;28;20053;-73
2023/04/23 01:48:25;;;;;;;58.97;27.30;;;;;;;-145.18;100.00;46662.34;5009646;28;20121;-72
2023/04/23 01:50:50;;;;;;;62.93;28.87;;;;;;;-145.18;100.00;46666.25;4991166;28;20382;-73
2023/04/23 01:53:16;;;;;;;60.03;27.30;;;;;;;-145.18;100.00;46662.34;4990688;28;20069;-72
2023/04/23 01:55:44;;;;;;;53.73;26.57;;;;;;;-145.18;100.00;46666.25;5007114;28;20139;-73
2023/04/23 01:58:09;;;;;;;59.23;28.07;;;;;;;-145.18;100.00;46670.16;5006721;28;20037;-73
2023/04/23 02:03:10;;;;;;;52.35;26.05;;;;;;;-145.18;100.00;46666.25;5158491;22;20054;-73
2023/04/23 02:05:35;;;;;;;54.80;25.93;;;;;;;-145.18;100.00;46666.25;4963304;28;20035;-73
2023/04/23 02:08:02;;;;;;;61.37;26.57;;;;;;;-145.18;100.00;46664.31;4968323;28;20086;-73
2023/04/23 02:10:29;;;;;;;52.77;26.57;;;;;;;-145.18;100.00;46670.16;4971676;28;20113;-73
2023/04/23 02:12:57;;;;;;;58.77;26.93;;;;;;;-145.18;100.00;46660.41;4970812;28;20331;-73
2023/04/23 02:15:23;;;;;;;50.53;25.43;;;;;;;-145.18;100.00;46660.41;4971795;28;20367;-74
2023/04/23 02:17:50;;;;;;;52.53;26.43;;;;;;;-145.18;100.00;46668.22;4971362;28;20392;-73
2023/04/23 02:20:16;;;;;;;51.90;25.67;;;;;;;-145.18;100.00;46666.25;4971474;28;20057;-73
2023/04/23 02:22:42;;;;;;;49.93;26.30;;;;;;;-145.18;100.00;46660.41;4970980;28;20281;-73
2023/04/23 02:25:08;;;;;;;53.20;25.10;;;;;;;-145.18;100.00;46664.31;4971403;28;20077;-74
2023/04/23 02:27:34;;;;;;;49.20;26.00;;;;;;;-145.18;100.00;46664.31;4971567;28;20027;-74
2023/04/23 02:29:59;;;;;;;49.13;25.10;;;;;;;-145.18;100.00;46662.34;4971478;28;20272;-74
2023/04/23 02:32:26;;;;;;;49.87;25.90;;;;;;;-145.18;100.00;46664.31;4971453;28;20276;-73
2023/04/23 02:34:52;;;;;;;49.53;24.37;;;;;;;-145.18;100.00;46666.25;4971371;28;20118;-74
2023/04/23 02:37:18;;;;;;;51.17;24.43;;;;;;;-145.18;100.00;46666.25;4970941;28;20694;-74
2023/04/23 02:39:43;;;;;;;54.47;25.07;;;;;;;-145.18;100.00;46668.22;4971345;28;20046;-73
2023/04/23 02:42:08;;;;;;;47.80;24.23;;;;;;;-145.18;100.00;46666.25;4953710;28;20077;-73
2023/04/23 02:44:34;;;;;;;48.60;24.70;;;;;;;-145.18;100.00;46664.31;4971631;28;20689;-73
2023/04/23 02:46:59;;;;;;;42.00;23.17;;;;;;;-145.18;100.00;46666.25;4970618;28;20123;-73
2023/04/23 02:49:25;;;;;;;46.17;23.13;;;;;;;-145.18;100.00;46666.25;4971449;28;20495;-73
2023/04/23 02:51:50;;;;;;;43.73;22.40;;;;;;;-145.18;100.00;46668.22;4971017;28;20058;-74
2023/04/23 02:54:16;;;;;;;45.77;23.37;;;;;;;-145.18;100.00;46672.13;4970834;28;20510;-73
2023/04/23 02:56:41;;;;;;;44.50;22.57;;;;;;;-145.18;100.00;46666.25;4971297;28;20034;-73
2023/04/23 02:59:07;;;;;;;40.17;21.17;;;;;;;-145.18;100.00;46666.25;4970874;28;20037;-73
2023/04/23 03:01:33;;;;;;;38.07;21.17;;;;;;;-145.18;100.00;46664.31;4974533;28;20042;-73
2023/04/23 03:03:59;;;;;;;39.07;21.13;;;;;;;-145.18;100.00;46666.25;4974233;28;20348;-73
2023/04/23 03:06:24;;;;;;;36.93;21.90;;;;;;;-145.18;100.00;46664.31;4975132;28;20038;-73
2023/04/23 03:08:49;;;;;;;41.70;21.40;;;;;;;-145.18;100.00;46662.34;4974647;28;20046;-73
2023/04/23 03:11:15;;;;;;;43.53;23.40;;;;;;;-145.18;100.00;46668.22;4974761;28;20396;-73
2023/04/23 03:13:40;;;;;;;36.90;20.90;;;;;;;-145.18;100.00;46668.22;4974321;28;20035;-73
2023/04/23 03:16:06;;;;;;;41.90;21.27;;;;;;;-145.18;100.00;46670.16;4957426;28;20061;-73
2023/04/23 03:18:32;;;;;;;42.67;22.07;;;;;;;-145.18;100.00;46672.13;4974661;28;20133;-73
2023/04/23 03:20:57;;;;;;;39.63;21.13;;;;;;;-145.18;100.00;46668.22;4974196;28;20042;-74
2023/04/23 03:23:22;;;;;;;38.13;21.67;;;;;;;-145.18;100.00;46662.34;4957188;28;20051;-73
2023/04/23 03:25:48;;;;;;;40.80;21.37;;;;;;;-145.18;100.00;46670.16;4974476;28;20046;-73
2023/04/23 03:28:13;;;;;;;38.97;21.53;;;;;;;-145.18;100.00;46670.16;4974227;28;20542;-73
2023/04/23 03:30:39;;;;;;;36.83;21.30;;;;;;;-145.18;100.00;46670.16;4957073;28;20046;-73
2023/04/23 03:33:04;;;;;;;37.40;21.90;;;;;;;-145.18;100.00;46666.25;4973906;28;20112;-73
2023/04/23 03:35:30;;;;;;;37.37;21.00;;;;;;;-145.18;100.00;46672.13;4974594;28;20038;-73
2023/04/23 03:37:55;;;;;;;41.50;22.07;;;;;;;-145.18;100.00;46674.06;4972375;28;20420;-74
2023/04/23 03:40:20;;;;;;;38.47;20.93;;;;;;;-145.18;100.00;46674.06;4954960;28;20042;-73
2023/04/23 03:42:46;;;;;;;35.07;20.10;;;;;;;-145.18;100.00;46674.06;4970250;28;20812;-73
2023/04/23 03:45:13;;;;;;;38.47;21.37;;;;;;;-145.18;100.00;46670.16;4972542;28;20034;-73
2023/04/23 03:47:39;;;;;;;41.93;22.97;;;;;;;-145.18;100.00;46668.22;4973652;28;20480;-73
2023/04/23 03:50:06;;;;;;;40.93;21.30;;;;;;;-145.18;100.00;46666.25;4973846;28;20289;-73
2023/04/23 03:52:31;;;;;;;41.10;21.87;;;;;;;-145.18;100.00;46664.31;4956650;28;20077;-73
2023/04/23 03:54:57;;;;;;;38.97;21.53;;;;;;;-145.18;100.00;46666.25;4973799;28;20672;-73
2023/04/23 03:57:22;;;;;;;37.53;22.70;;;;;;;-145.18;100.00;46668.22;4973637;28;20045;-73
2023/04/23 03:59:47;;;;;;;42.33;22.43;;;;;;;-145.18;100.00;46664.31;4973979;28;20074;-73
2023/04/23 04:02:13;;;;;;;37.47;21.07;;;;;;;-145.18;100.00;46668.22;4973520;28;20058;-73
2023/04/23 04:04:38;;;;;;;40.77;21.77;;;;;;;-145.18;100.00;46666.25;4974006;28;20422;-73
2023/04/23 04:07:06;;;;;;;40.17;21.60;;;;;;;-145.18;100.00;46666.25;4956293;28;20039;-73
2023/04/23 04:09:31;;;;;;;37.07;19.57;;;;;;;-145.18;100.00;46666.25;4973619;28;20093;-73
2023/04/23 04:11:56;;;;;;;37.27;20.37;;;;;;;-145.18;100.00;46668.22;4972459;28;20737;-73
2023/04/23 04:14:22;;;;;;;34.60;19.87;;;;;;;-145.18;100.00;46668.22;4973597;28;20066;-73
2023/04/23 04:16:48;;;;;;;39.33;20.50;;;;;;;-145.18;100.00;46668.22;4972947;28;20109;-72
2023/04/23 04:19:13;;;;;;;35.47;19.63;;;;;;;-145.18;100.00;46668.22;4965509;28;20082;-73
2023/04/23 04:21:38;;;;;;;36.67;19.43;;;;;;;-145.18;100.00;46670.16;4961955;28;20431;-72
2023/04/23 04:24:04;;;;;;;35.07;20.13;;;;;;;-145.18;100.00;46668.22;4961916;28;20101;-73
2023/04/23 04:26:33;;;;;;;37.33;20.87;;;;;;;-145.18;100.00;46670.16;4964450;28;20094;-73
2023/04/23 04:29:03;;;;;;;40.33;20.93;;;;;;;-145.18;100.00;46666.25;4921295;28;20042;-73
2023/04/23 04:31:28;;;;;;;43.60;21.73;;;;;;;-145.18;100.00;46670.16;4964621;28;20264;-73
2023/04/23 04:33:54;;;;;;;41.23;20.47;;;;;;;-145.18;100.00;46664.31;4964714;28;20289;-73
2023/04/23 04:36:20;;;;;;;37.83;20.70;;;;;;;-145.18;100.00;46670.16;4962094;28;20484;-73
2023/04/23 04:38:45;;;;;;;34.40;20.00;;;;;;;-145.18;100.00;46670.16;4962153;28;20073;-73
2023/04/23 04:41:12;;;;;;;36.63;20.07;;;;;;;-145.18;100.00;46670.16;4964063;28;20031;-73
2023/04/23 04:43:37;;;;;;;38.50;20.17;;;;;;;-145.18;100.00;46662.34;4962931;28;20043;-73
2023/04/23 04:46:04;;;;;;;34.50;19.43;;;;;;;-145.18;100.00;46672.13;4964673;28;20352;-72
2023/04/23 04:48:29;;;;;;;33.17;19.20;;;;;;;-145.18;100.00;46664.31;4964527;28;20039;-73
2023/04/23 04:50:55;;;;;;;34.53;19.17;;;;;;;-145.18;100.00;46666.25;4954221;28;20645;-73
2023/04/23 04:53:20;;;;;;;37.60;19.43;;;;;;;-145.18;100.00;46666.25;4971543;28;20034;-72
2023/04/23 04:55:46;;;;;;;34.70;19.27;;;;;;;-145.18;100.00;46668.22;4972168;28;20067;-73
2023/04/23 04:58:11;;;;;;;37.80;20.07;;;;;;;-145.18;100.00;46668.22;4972531;28;20130;-72
2023/04/23 05:00:37;;;;;;;35.70;20.47;;;;;;;-145.18;100.00;46668.22;4972605;28;20030;-72
2023/04/23 05:03:03;;;;;;;34.47;19.13;;;;;;;-145.18;100.00;46664.31;4972300;28;20430;-72
2023/04/23 05:05:28;;;;;;;38.07;20.93;;;;;;;-145.18;100.00;46664.31;4970583;28;20042;-73
2023/04/23 05:07:54;;;;;;;38.23;21.20;;;;;;;-145.18;100.00;46666.25;4935645;29;20547;-72
2023/04/23 05:10:19;;;;;;;32.40;19.97;;;;;;;-145.18;100.00;46664.31;4970021;28;20042;-73
2023/04/23 05:12:46;;;;;;;32.67;19.07;;;;;;;-145.18;100.00;46662.34;4987172;28;20034;-73
2023/04/23 05:15:12;;;;;;;40.03;19.90;;;;;;;-145.18;100.00;46666.25;4971842;28;20038;-72
2023/04/23 05:17:41;;;;;;;39.57;19.43;;;;;;;-145.18;100.00;46666.25;4972308;28;20311;-74
2023/04/23 05:20:11;;;;;;;41.40;20.30;;;;;;;-145.18;100.00;46662.34;4972252;28;20287;-73
2023/04/23 05:22:37;;;;;;;33.07;20.07;;;;;;;-145.18;100.00;46664.31;4971782;28;20277;-74
2023/04/23 05:25:04;;;;;;;37.50;20.40;;;;;;;-145.18;100.00;46664.31;4971939;28;20277;-73
2023/04/23 05:27:29;;;;;;;41.13;20.83;;;;;;;-145.18;100.00;46664.31;4952322;28;20775;-73
2023/04/23 05:29:55;;;;;;;34.10;20.80;;;;;;;-145.18;100.00;46666.25;4971647;28;20288;-73
2023/04/23 05:32:20;;;;;;;36.50;20.50;;;;;;;-145.18;100.00;46666.25;4969196;28;20062;-73
2023/04/23 05:34:45;;;;;;;36.30;20.03;;;;;;;-145.18;100.00;46666.25;4962418;28;20043;-73
2023/04/23 05:37:11;;;;;;;36.33;20.00;;;;;;;-145.18;100.00;46666.25;4945903;28;20059;-73
2023/04/23 05:39:36;;;;;;;37.97;19.50;;;;;;;-145.18;100.00;46666.25;4970816;28;20043;-73
2023/04/23 05:42:01;;;;;;;34.30;19.77;;;;;;;-145.18;100.00;46668.22;4971376;28;20052;-73
2023/04/23 05:44:28;;;;;;;32.40;19.03;;;;;;;-145.18;100.00;46664.31;4971804;28;20039;-73
2023/04/23 05:46:53;;;;;;;39.97;19.10;;;;;;;-145.18;100.00;46668.22;4966638;28;20090;-73
2023/04/23 05:49:18;;;;;;;37.17;19.37;;;;;;;-145.18;100.00;46664.31;4969150;28;20327;-72
2023/04/23 05:51:44;;;;;;;36.33;19.77;;;;;;;-145.18;100.00;46666.25;4971870;28;20039;-73
2023/04/23 05:54:09;;;;;;;32.57;18.23;;;;;;;-145.18;100.00;46662.34;4971063;28;20087;-73
2023/04/23 05:56:35;;;;;;;33.70;18.37;;;;;;;-145.18;100.00;46660.41;4971334;28;20454;-73
2023/04/23 05:59:00;;;;;;;35.17;18.70;;;;;;;-145.18;100.00;46664.31;4953514;28;20414;-73
2023/04/23 06:01:25;;;;;;;31.83;18.50;;;;;;;-145.18;100.00;46662.34;4971743;28;20035;-73
2023/04/23 06:03:51;;;;;;;31.63;19.17;;;;;;;-145.18;100.00;46664.31;4965484;28;20408;-73
2023/04/23 06:06:17;;;;;;;34.83;18.37;;;;;;;-145.18;100.00;46668.22;4967252;28;20035;-73
2023/04/23 06:08:42;;;;;;;34.73;18.67;;;;;;;-145.18;100.00;46660.41;4961557;28;20295;-72
2023/04/23 06:11:08;;;;;;;39.17;20.07;;;;;;;-145.18;100.00;46660.41;4965142;28;20508;-73
2023/04/23 06:13:39;;;;;;;33.30;18.63;;;;;;;-145.18;100.00;46660.41;4970970;28;20122;-72
2023/04/23 06:16:04;;;;;;;32.77;18.90;;;;;;;-145.18;100.00;46656.50;4968871;28;20057;-73
2023/04/23 06:18:30;;;;;;;31.60;17.53;;;;;;;-145.18;100.00;46658.44;4966389;28;20749;-73
2023/04/23 06:20:56;;;;;;;30.67;17.13;;;;;;;-145.18;100.00;46656.50;4962299;28;20031;-73
2023/04/23 06:23:22;;;;;;;29.67;17.60;;;;;;;-145.18;100.00;46656.50;4962548;28;20035;-72
2023/04/23 06:25:47;;;;;;;32.03;18.20;;;;;;;-145.18;100.00;46660.41;4962594;28;20478;-72
2023/04/23 06:28:13;;;;;;;30.37;17.57;;;;;;;-145.18;100.00;46662.34;4962036;28;20038;-72
2023/04/23 06:30:38;;;;;;;25.77;16.20;;;;;;;-145.18;100.00;46660.41;4971271;28;20027;-72
2023/04/23 06:33:04;;;;;;;27.20;16.50;;;;;;;-145.18;100.00;46658.44;4970465;28;20042;-72
2023/04/23 06:35:30;;;;;;;31.33;16.47;;;;;;;-145.18;100.00;46660.41;4970458;28;20065;-72
2023/04/23 06:37:55;;;;;;;28.97;15.83;;;;;;;-145.18;100.00;46662.34;4966427;28;20041;-73
2023/04/23 06:40:20;;;;;;;25.83;14.50;;;;;;;-145.18;100.00;46664.31;4970957;28;20494;-72
2023/04/23 06:42:46;;;;;;;26.53;15.50;;;;;;;-145.18;100.00;46664.31;4973153;28;20035;-73
2023/04/23 06:45:12;;;;;;;25.77;14.40;;;;;;;-145.18;100.00;46664.31;4973323;28;20471;-72
2023/04/23 06:47:37;;;;;;;22.33;14.03;;;;;;;-145.18;100.00;46660.41;4988662;28;20442;-72
2023/04/23 06:50:04;;;;;;;22.93;13.10;;;;;;;-145.18;100.00;46670.16;4958584;28;20215;-72
2023/04/23 06:52:30;;;;;;;22.63;12.87;;;;;;;-145.18;100.00;46668.22;4958264;28;20407;-72
2023/04/23 06:54:55;;;;;;;21.80;12.23;;;;;;;-145.18;100.00;46666.25;4974370;28;20034;-72
2023/04/23 06:57:20;;;;;;;21.17;11.50;;;;;;;-145.18;100.00;46670.16;4974299;28;20491;-72
2023/04/23 06:59:46;;;;;;;19.13;11.23;;;;;;;-145.18;100.00;46670.16;4974603;28;20031;-72
2023/04/23 07:02:11;;;;;;;20.57;12.57;;;;;;;-145.18;100.00;46676.03;4974308;28;20038;-72
2023/04/23 07:04:37;;;;;;;18.13;10.33;;;;;;;-145.18;100.00;46676.03;4967229;28;20046;-72
2023/04/23 07:07:02;;;;;;;18.43;10.30;;;;;;;-145.18;100.00;46676.03;4937877;29;20044;-72
2023/04/23 07:09:27;;;;;;;17.10;10.87;;;;;;;-145.18;100.00;46674.06;4972581;28;20464;-72
2023/04/23 07:11:53;;;;;;;18.83;11.10;;;;;;;-145.18;100.00;46677.97;4970498;28;20392;-73
2023/04/23 07:14:18;;;;;;;21.87;11.10;;;;;;;-145.18;100.00;46681.88;4970098;28;20057;-72
2023/04/23 07:16:44;;;;;;;15.60;10.67;;;;;;;-145.18;100.00;46679.94;4974161;28;20045;-72
2023/04/23 07:19:09;;;;;;;17.57;10.23;;;;;;;-145.18;100.00;46681.88;4972558;28;20530;-72
2023/04/23 07:21:35;;;;;;;13.07;9.03;;;;;;;-145.18;100.00;46683.84;4974173;28;20414;-73
2023/04/23 07:24:05;;;;;;;17.13;9.57;;;;;;;-145.18;100.00;46679.94;4972368;28;20117;-72
2023/04/23 07:26:32;;;;;;;16.43;9.60;;;;;;;-145.18;100.00;46685.78;4973157;28;20487;-73
2023/04/23 07:28:57;;;;;;;15.67;9.63;;;;;;;-145.18;100.00;46685.78;4973669;28;20038;-72
2023/04/23 07:31:22;;;;;;;14.97;8.67;;;;;;;-145.18;100.00;46687.75;4970143;28;20542;-72
2023/04/23 07:33:48;;;;;;;16.73;9.33;;;;;;;-145.18;100.00;46687.75;4966790;28;20125;-72
2023/04/23 07:36:14;;;;;;;15.67;9.07;;;;;;;-145.18;100.00;46683.84;4971652;28;20101;-73
2023/04/23 07:38:39;;;;;;;19.63;8.97;;;;;;;-145.18;100.00;46687.75;4972359;28;20106;-72
2023/04/23 07:41:05;;;;;;;17.10;9.37;;;;;;;-145.18;100.00;46687.75;4956317;28;20043;-72
2023/04/23 07:43:30;;;;;;;14.83;8.40;;;;;;;-145.18;100.00;46693.59;4972951;28;20035;-72
2023/04/23 07:45:55;;;;;;;15.40;8.03;;;;;;;-145.18;100.00;46691.66;4972992;28;20125;-72
2023/04/23 07:48:21;;;;;;;13.47;8.27;;;;;;;-145.18;100.00;46691.66;4973450;28;20042;-72
2023/04/23 07:50:46;;;;;;;20.47;8.40;;;;;;;-145.18;100.00;46691.66;4973276;28;20066;-72
2023/04/23 07:53:11;;;;;;;16.10;7.77;;;;;;;-145.18;100.00;46693.59;4958547;28;20510;-72
2023/04/23 07:55:37;;;;;;;12.27;6.93;;;;;;;-145.18;100.00;46695.56;4972916;28;20075;-73
2023/04/23 07:58:02;;;;;;;12.70;7.57;;;;;;;-145.18;100.00;46693.59;4972448;28;20109;-73
2023/04/23 08:00:28;;;;;;;17.23;7.00;;;;;;;-145.18;100.00;46695.56;4971991;28;20912;-72
2023/04/23 08:02:53;;;;;;;11.53;7.23;;;;;;;-145.18;100.00;46693.59;4971008;28;20053;-72
2023/04/23 08:05:19;;;;;;;16.00;6.10;;;;;;;-145.18;100.00;46689.69;4967340;28;20126;-73
2023/04/23 08:07:44;;;;;;;12.90;6.10;;;;;;;-145.18;100.00;46687.75;4973086;28;20042;-73
2023/04/23 08:10:10;;;;;;;13.73;5.90;;;;;;;-145.18;100.00;46679.94;4970075;28;20035;-72
2023/04/23 08:12:35;;;;;;;12.37;6.03;;;;;;;-145.18;100.00;46668.22;4955010;28;20042;-72
2023/04/23 08:15:02;;;;;;;11.07;4.93;;;;;;;-145.18;100.00;46648.69;4964732;28;20039;-72
2023/04/23 08:17:27;;;;;;;12.07;5.13;;;;;;;-145.18;100.00;46617.41;4968151;28;20387;-72
2023/04/23 08:19:52;;;;;;;9.90;5.10;;;;;;;-145.18;100.00;46609.59;4972473;28;20039;-72
2023/04/23 08:22:18;;;;;;;13.07;4.93;;;;;;;-145.18;100.00;46593.97;4973174;28;20046;-72
2023/04/23 08:24:45;;;;;;;15.13;4.70;;;;;;;-145.18;100.00;46576.41;4972741;28;20486;-72
2023/04/23 08:27:10;;;;;;;11.43;4.97;;;;;;;-145.18;100.00;46568.59;4973076;28;20047;-72
2023/04/23 08:29:36;;;;;;;12.77;4.53;;;;;;;-145.18;100.00;46570.53;4972488;28;20142;-72
2023/04/23 08:32:01;;;;;;;11.60;4.43;;;;;;;-145.18;100.00;46576.41;4955821;28;20039;-73
2023/04/23 08:34:26;;;;;;;10.90;5.20;;;;;;;-145.18;100.00;46572.50;4960912;28;20035;-73
2023/04/23 08:36:52;;;;;;;12.70;4.87;;;;;;;-145.18;100.00;46570.53;4936611;29;20092;-73
2023/04/23 08:39:18;;;;;;;9.07;4.10;;;;;;;-145.18;100.00;46582.25;4964551;28;20065;-73
2023/04/23 08:41:48;;;;;;;11.13;4.63;;;;;;;-145.18;100.00;46592.03;4972857;28;20039;-73
2023/04/23 08:44:24;;;;;;;12.53;4.37;;;;;;;-145.18;100.00;46599.84;4972240;28;20479;-73
2023/04/23 08:46:52;;;;;;;10.30;4.47;;;;;;;-145.18;100.00;46586.16;4963694;28;20037;-73
2023/04/23 08:49:18;;;;;;;12.33;4.80;;;;;;;-145.18;100.00;46592.03;4963953;28;20046;-73
2023/04/23 08:51:53;;;;;;;11.27;3.97;;;;;;;-145.18;100.00;46593.97;4972909;28;20031;-73
2023/04/23 08:54:26;;;;;;;12.13;3.83;;;;;;;-145.18;100.00;46590.06;4963616;28;20046;-73
2023/04/23 08:56:56;;;;;;;7.07;3.50;;;;;;;-145.18;100.00;46597.88;4936243;29;20474;-73
2023/04/23 08:59:21;;;;;;;14.50;3.77;;;;;;;-145.18;100.00;46609.59;4963113;28;20050;-73
2023/04/23 09:01:48;;;;;;;8.30;3.77;;;;;;;-145.18;100.00;46599.84;4970758;28;20475;-73
2023/04/23 09:04:15;;;;;;;11.97;3.80;;;;;;;-145.18;100.00;46615.47;4954609;28;20094;-73
2023/04/23 09:06:42;;;;;;;8.27;4.27;;;;;;;-145.18;100.00;46615.47;4953104;29;20428;-73
2023/04/23 09:09:08;;;;;;;11.60;4.10;;;;;;;-145.18;100.00;46627.19;4961220;28;20035;-74
2023/04/23 09:11:36;;;;;;;9.37;4.30;;;;;;;-145.18;100.00;46621.31;4972295;28;20415;-73
2023/04/23 09:14:01;;;;;;;13.23;4.00;;;;;;;-145.18;100.00;46636.94;4971554;28;20042;-73
2023/04/23 09:16:27;;;;;;;8.67;3.70;;;;;;;-145.18;100.00;46646.72;4954844;28;20500;-73
2023/04/23 09:18:52;;;;;;;9.93;4.30;;;;;;;-145.18;100.00;46644.78;4969889;28;20031;-73
2023/04/23 09:21:19;;;;;;;6.30;3.07;;;;;;;-145.18;100.00;46644.78;4972176;28;20411;-73
2023/04/23 09:23:45;;;;;;;19.30;3.07;;;;;;;-145.18;100.00;46644.78;4971510;28;20539;-73
2023/04/23 09:26:19;;;;;;;6.07;2.53;;;;;;;-145.18;100.00;46679.94;4971933;28;20039;-73
2023/04/23 09:28:48;;;;;;;7.57;3.20;;;;;;;-145.18;100.00;46693.59;4971888;28;20054;-73
2023/04/23 09:31:14;;;;;;;5.97;3.00;;;;;;;-145.18;100.00;46703.38;4971995;28;20082;-73
2023/04/23 09:33:40;;;;;;;7.70;2.80;;;;;;;-145.18;100.00;46711.19;4955717;28;20066;-73
2023/04/23 09:36:10;;;;;;;10.33;3.27;;;;;;;-145.18;100.00;46730.72;4971828;28;20439;-73
2023/04/23 09:38:36;;;;;;;11.37;2.90;;;;;;;-145.18;100.00;46724.84;4971709;28;20093;-73
2023/04/23 09:41:20;;;;;;;5.80;2.40;;;;;;;-145.18;100.00;46758.06;4971844;28;20062;-73
2023/04/23 09:43:47;;;;;;;5.77;2.03;;;;;;;-145.18;100.00;46904.56;4971103;28;20031;-74
2023/04/23 09:46:13;;;;;;;9.77;3.67;;;;;;;-145.18;100.00;46885.03;4970608;28;20043;-73
2023/04/23 09:48:42;;;;;;;5.40;2.60;;;;;;;-145.18;100.00;46941.69;4966510;28;20205;-73
2023/04/23 09:51:07;;;;;;;7.67;2.60;;;;;;;-145.18;100.00;46931.91;4959672;28;20063;-73
2023/04/23 09:53:43;;;;;;;8.00;2.50;;;;;;;-145.18;100.00;47232.75;4961641;28;20141;-74
2023/04/23 09:56:08;;;;;;;7.30;2.50;;;;;;;-145.18;100.00;47371.47;4959271;28;20489;-73
2023/04/23 09:58:34;;;;;;;7.13;2.50;;;;;;;-145.18;100.00;47396.88;4962236;28;20045;-73
2023/04/23 10:01:07;;;;;;;5.93;2.27;;;;;;;-145.18;100.00;47353.88;4959283;28;20030;-73
2023/04/23 10:03:32;;;;;;;6.87;1.93;;;;;;;-145.18;100.00;47346.06;4945326;28;20062;-74
2023/04/23 10:05:58;;;;;;;3.97;1.70;;;;;;;-145.18;100.00;47295.28;4959891;28;20042;-74
2023/04/23 10:08:24;;;;;;;7.60;1.90;;;;;;;-145.18;100.00;47275.75;4956006;28;20019;-74
2023/04/23 10:10:50;;;;;;;9.80;1.60;;;;;;;-145.18;100.00;47256.22;4970159;28;20107;-73
2023/04/23 10:13:17;;;;;;;6.07;1.90;;;;;;;-145.18;100.00;47256.22;4969819;28;20145;-73
2023/04/23 10:15:45;;;;;;;3.57;1.50;;;;;;;-145.18;100.00;47248.41;4967283;28;20043;-73
2023/04/23 10:18:13;;;;;;;5.90;1.70;;;;;;;-145.18;100.00;47244.50;4962831;28;20619;-73
2023/04/23 10:20:40;;;;;;;9.80;1.83;;;;;;;-145.18;100.00;47258.16;4965945;28;20458;-74
2023/04/23 10:23:08;;;;;;;6.47;2.13;;;;;;;-145.18;100.00;47250.34;4966857;28;20034;-73
2023/04/23 10:25:37;;;;;;;7.80;1.67;;;;;;;-145.18;100.00;47258.16;4967602;28;20066;-73
2023/04/23 10:28:06;;;;;;;9.37;1.73;;;;;;;-145.18;100.00;47265.97;4970629;28;20035;-74
2023/04/23 10:30:31;;;;;;;6.97;1.60;;;;;;;-145.18;100.00;47267.94;4965108;28;20125;-73
2023/04/23 10:33:00;;;;;;;4.50;1.97;;;;;;;-145.18;100.00;47252.31;4963203;28;20044;-74
2023/04/23 10:35:25;;;;;;;6.90;1.60;;;;;;;-145.18;100.00;47246.44;4958321;28;20038;-73
2023/04/23 10:37:52;;;;;;;4.60;1.60;;;;;;;-145.18;100.00;47242.53;4968693;28;20035;-73
2023/04/23 10:40:38;;;;;;;5.17;1.70;;;;;;;-145.18;100.00;47248.41;4967690;28;20039;-73
2023/04/23 10:43:04;;;;;;;5.70;1.83;;;;;;;-145.18;100.00;47228.84;4951528;28;20068;-74
2023/04/23 10:45:31;;;;;;;4.83;1.23;;;;;;;-145.18;100.00;47244.50;4960962;28;20464;-74
2023/04/23 10:47:57;;;;;;;5.93;1.80;;;;;;;-145.18;100.00;47254.25;4971217;28;20058;-73
2023/04/23 10:50:24;;;;;;;6.40;1.63;;;;;;;-145.18;100.00;47256.22;4970530;28;20026;-74
2023/04/23 10:52:52;;;;;;;3.67;1.40;;;;;;;-145.18;100.00;47256.22;4951819;28;20090;-74
2023/04/23 10:55:20;;;;;;;9.97;2.00;;;;;;;-145.18;100.00;47250.34;4963283;28;20839;-73